createdAt,value
2022-12-19T00:00:10.465Z,101541.59
2022-12-19T00:03:02.622Z,101537.25
2022-12-19T00:05:29.816Z,101532.13
2022-12-19T00:07:57.250Z,101527.69
2022-12-19T00:10:26.011Z,101531.38
2022-12-19T00:12:53.171Z,101529.56
2022-12-19T00:15:20.160Z,101529.56
2022-12-19T00:17:47.355Z,101532.31
2022-12-19T00:20:15.955Z,101528.97
2022-12-19T00:22:46.416Z,101527.91
2022-12-19T00:25:13.455Z,101532.44
2022-12-19T00:27:41.639Z,101517.59
2022-12-19T00:30:09.934Z,101516.75
2022-12-19T00:32:38.025Z,101524.56
2022-12-19T00:35:05.436Z,101508.75
2022-12-19T00:37:35.093Z,101515.91
2022-12-19T00:40:04.452Z,101514.22
2022-12-19T00:42:31.608Z,101515.91
2022-12-19T00:44:58.560Z,101513.28
2022-12-19T00:47:26.823Z,101518.56
2022-12-19T00:49:53.816Z,101524.78
2022-12-19T00:52:21.961Z,101507.25
2022-12-19T00:54:50.571Z,101502.97
2022-12-19T00:57:19.888Z,101497.78
2022-12-19T00:59:47.024Z,101496.00
2022-12-19T01:02:14.332Z,101488.09
2022-12-19T01:04:41.994Z,101486.44
2022-12-19T01:07:13.008Z,101479.47
2022-12-19T01:09:40.109Z,101482.13
2022-12-19T01:12:29.881Z,101480.31
2022-12-19T01:15:04.481Z,101477.78
2022-12-19T01:17:37.780Z,101467.25
2022-12-19T01:20:21.368Z,101470.84
2022-12-19T01:22:59.921Z,101465.59
2022-12-19T01:25:28.322Z,101470.00
2022-12-19T01:27:57.310Z,101474.44
2022-12-19T01:30:25.212Z,101453.34
2022-12-19T01:32:53.808Z,101456.97
2022-12-19T01:35:21.673Z,101444.75
2022-12-19T01:38:07.627Z,101447.38
2022-12-19T01:40:36.893Z,101444.75
2022-12-19T01:43:04.931Z,101445.81
2022-12-19T01:45:36.603Z,101436.97
2022-12-19T01:48:15.842Z,101430.00
2022-12-19T01:51:04.026Z,101426.53
2022-12-19T01:53:49.753Z,101425.66
2022-12-19T01:56:29.216Z,101431.91
2022-12-19T01:59:06.503Z,101431.06
2022-12-19T02:01:47.689Z,101418.84
2022-12-19T02:04:26.272Z,101404.72
2022-12-19T02:06:59.461Z,101410.00
2022-12-19T02:09:33.460Z,101416.22
2022-12-19T02:12:01.103Z,101405.66
2022-12-19T02:14:29.630Z,101398.75
2022-12-19T02:17:32.841Z,101401.38
2022-12-19T02:20:25.137Z,101393.59
2022-12-19T02:23:00.968Z,101389.16
2022-12-19T02:25:46.899Z,101387.59
2022-12-19T02:28:50.246Z,101389.41
2022-12-19T02:31:48.054Z,101386.03
2022-12-19T02:34:44.689Z,101385.28
2022-12-19T02:37:48.119Z,101372.13
2022-12-19T02:40:39.286Z,101371.28
2022-12-19T02:43:10.388Z,101370.47
2022-12-19T02:45:39.827Z,101358.25
2022-12-19T02:48:09.262Z,101355.63
2022-12-19T02:50:45.341Z,101352.97
2022-12-19T02:53:16.179Z,101356.56
2022-12-19T02:56:10.381Z,101352.25
2022-12-19T02:59:12.904Z,101354.06
2022-12-19T03:02:07.866Z,101358.59
2022-12-19T03:05:02.819Z,101355.13
2022-12-19T03:08:05.992Z,101344.47
2022-12-19T03:10:43.643Z,101346.28
2022-12-19T03:13:50.306Z,101336.81
2022-12-19T03:16:17.716Z,101334.28
2022-12-19T03:18:45.479Z,101344.81
2022-12-19T03:21:37.027Z,101352.69
2022-12-19T03:24:08.007Z,101359.88
2022-12-19T03:26:43.377Z,101366.13
2022-12-19T03:29:59.590Z,101374.22
2022-12-19T03:32:30.501Z,101374.22
2022-12-19T03:35:04.447Z,101379.50
2022-12-19T03:37:39.499Z,101371.59
2022-12-19T03:40:17.315Z,101371.59
2022-12-19T03:43:07.700Z,101377.81
2022-12-19T03:45:44.737Z,101384.84
2022-12-19T03:48:38.754Z,101377.94
2022-12-19T03:51:29.133Z,101375.19
2022-12-19T03:54:08.590Z,101370.97
2022-12-19T03:56:44.667Z,101370.13
2022-12-19T03:59:22.652Z,101387.63
2022-12-19T04:01:53.911Z,101381.50
2022-12-19T04:04:24.038Z,101382.47
2022-12-19T04:06:52.988Z,101371.09
2022-12-19T04:09:23.954Z,101359.84
2022-12-19T04:12:00.198Z,101365.84
2022-12-19T04:14:33.499Z,101357.94
2022-12-19T04:17:31.172Z,101342.38
2022-12-19T04:20:06.241Z,101345.94
2022-12-19T04:23:07.894Z,101342.81
2022-12-19T04:25:45.365Z,101343.91
2022-12-19T04:28:26.996Z,101344.50
2022-12-19T04:30:55.002Z,101332.06
2022-12-19T04:33:22.149Z,101335.66
2022-12-19T04:35:49.488Z,101327.97
2022-12-19T04:38:16.767Z,101327.00
2022-12-19T04:40:44.291Z,101323.44
2022-12-19T04:43:11.176Z,101307.66
2022-12-19T04:45:41.995Z,101323.44
2022-12-19T04:48:09.749Z,101318.19
2022-12-19T04:50:37.266Z,101327.00
2022-12-19T04:53:05.499Z,101315.75
2022-12-19T04:55:33.215Z,101313.13
2022-12-19T04:58:06.967Z,101320.09
2022-12-19T05:00:34.591Z,101322.00
2022-12-19T05:03:01.768Z,101328.19
2022-12-19T05:05:29.755Z,101328.19
2022-12-19T05:07:56.646Z,101316.97
2022-12-19T05:10:24.082Z,101323.91
2022-12-19T05:12:51.121Z,101313.38
2022-12-19T05:15:18.531Z,101318.88
2022-12-19T05:17:45.427Z,101308.13
2022-12-19T05:20:12.820Z,101297.81
2022-12-19T05:22:39.775Z,101303.94
2022-12-19T05:25:08.109Z,101305.72
2022-12-19T05:27:35.274Z,101305.72
2022-12-19T05:30:02.693Z,101297.81
2022-12-19T05:32:32.219Z,101301.38
2022-12-19T05:34:59.444Z,101298.03
2022-12-19T05:37:26.606Z,101295.41
2022-12-19T05:39:53.883Z,101302.44
2022-12-19T05:42:21.059Z,101301.59
2022-12-19T05:44:48.296Z,101299.94
2022-12-19T05:47:15.199Z,101298.25
2022-12-19T05:49:42.526Z,101299.94
2022-12-19T05:52:09.471Z,101292.16
2022-12-19T05:54:37.099Z,101307.13
2022-12-19T05:57:04.295Z,101301.00
2022-12-19T05:59:31.603Z,101299.22
2022-12-19T06:01:58.557Z,101301.00
2022-12-19T06:04:26.922Z,101299.31
2022-12-19T06:06:54.052Z,101290.59
2022-12-19T06:09:21.291Z,101295.13
2022-12-19T06:11:48.578Z,101292.63
2022-12-19T06:14:15.909Z,101288.19
2022-12-19T06:16:42.900Z,101286.50
2022-12-19T06:19:10.179Z,101279.59
2022-12-19T06:21:42.242Z,101276.22
2022-12-19T06:24:15.139Z,101271.19
2022-12-19T06:26:42.279Z,101269.28
2022-12-19T06:29:09.742Z,101261.72
2022-12-19T06:31:37.000Z,101261.59
2022-12-19T06:34:04.303Z,101260.03
2022-12-19T06:36:31.606Z,101267.59
2022-12-19T06:38:59.312Z,101269.50
2022-12-19T06:41:45.891Z,101269.50
2022-12-19T06:44:17.418Z,101279.91
2022-12-19T06:46:44.720Z,101278.13
2022-12-19T06:49:12.422Z,101286.97
2022-12-19T06:51:39.500Z,101293.19
2022-12-19T06:54:06.834Z,101297.72
2022-12-19T06:56:37.056Z,101292.69
2022-12-19T06:59:07.101Z,101294.38
2022-12-19T07:01:50.557Z,101290.16
2022-12-19T07:04:26.666Z,101290.97
2022-12-19T07:06:54.313Z,101293.63
2022-12-19T07:09:22.427Z,101284.06
2022-12-19T07:11:49.574Z,101290.97
2022-12-19T07:14:16.754Z,101284.06
2022-12-19T07:16:43.873Z,101287.63
2022-12-19T07:19:12.452Z,101277.31
2022-12-19T07:21:40.261Z,101284.28
2022-12-19T07:24:08.908Z,101279.03
2022-12-19T07:26:36.259Z,101272.06
2022-12-19T07:29:04.510Z,101270.41
2022-12-19T07:31:31.525Z,101267.06
2022-12-19T07:33:59.260Z,101271.59
2022-12-19T07:36:26.546Z,101285.47
2022-12-19T07:38:53.799Z,101285.56
2022-12-19T07:41:20.847Z,101278.50
2022-12-19T07:43:48.282Z,101283.91
2022-12-19T07:46:15.326Z,101283.06
2022-12-19T07:48:42.861Z,101278.72
2022-12-19T07:51:09.897Z,101276.09
2022-12-19T07:53:37.162Z,101268.22
2022-12-19T07:56:04.255Z,101268.34
2022-12-19T07:58:31.822Z,101259.50
2022-12-19T08:01:03.463Z,101253.41
2022-12-19T08:03:33.379Z,101250.78
2022-12-19T08:06:06.745Z,101247.41
2022-12-19T08:08:35.303Z,101253.63
2022-12-19T08:11:11.049Z,101252.78
2022-12-19T08:13:44.645Z,101251.94
2022-12-19T08:16:14.406Z,101249.28
2022-12-19T08:18:41.714Z,101260.78
2022-12-19T08:21:10.764Z,101246.91
2022-12-19T08:23:41.305Z,101244.28
2022-12-19T08:26:15.376Z,101242.59
2022-12-19T08:28:43.410Z,101234.91
2022-12-19T08:31:16.840Z,101223.56
2022-12-19T08:33:44.454Z,101232.28
2022-12-19T08:36:15.106Z,101229.66
2022-12-19T08:38:42.454Z,101224.41
2022-12-19T08:41:10.282Z,101219.28
2022-12-19T08:43:38.335Z,101219.41
2022-12-19T08:46:06.254Z,101214.13
2022-12-19T08:48:34.299Z,101214.13
2022-12-19T08:51:05.661Z,101208.13
2022-12-19T08:53:36.699Z,101214.34
2022-12-19T08:56:13.932Z,101208.13
2022-12-19T08:58:42.335Z,101204.69
2022-12-19T09:01:15.180Z,101204.78
2022-12-19T09:04:19.096Z,101220.56
2022-12-19T09:06:30.028Z,101232.03
2022-12-19T09:09:00.198Z,101223.41
2022-12-19T09:11:28.313Z,101219.94
2022-12-19T09:13:57.999Z,101214.56
2022-12-19T09:16:28.366Z,101229.63
2022-12-19T09:18:58.777Z,101216.47
2022-12-19T09:21:31.887Z,101205.25
2022-12-19T09:24:07.134Z,101208.69
2022-12-19T09:26:35.785Z,101213.94
2022-12-19T09:29:05.028Z,101209.53
2022-12-19T09:31:39.516Z,101188.50
2022-12-19T09:34:06.830Z,101173.56
2022-12-19T09:36:34.508Z,101179.69
2022-12-19T09:39:02.186Z,101169.16
2022-12-19T09:42:13.812Z,101168.31
2022-12-19T09:45:31.799Z,101162.34
2022-12-19T09:48:01.562Z,101158.88
2022-12-19T09:50:41.173Z,101163.91
2022-12-19T09:53:39.187Z,101165.81
2022-12-19T09:56:15.794Z,101166.75
2022-12-19T09:59:08.548Z,101166.75
2022-12-19T10:01:56.204Z,101175.34
2022-12-19T10:04:28.110Z,101172.84
2022-12-19T10:07:11.272Z,101178.19
2022-12-19T10:12:25.380Z,101157.19
2022-12-19T10:13:12.944Z,101153.59
2022-12-19T10:16:03.759Z,101147.41
2022-12-19T10:18:57.055Z,101140.34
2022-12-19T10:22:18.354Z,101134.28
2022-12-19T10:25:12.076Z,101127.31
2022-12-19T10:27:59.183Z,101122.78
2022-12-19T10:30:36.518Z,101112.41
2022-12-19T10:33:49.964Z,101115.13
2022-12-19T10:36:17.407Z,101104.59
2022-12-19T10:39:22.429Z,101103.78
2022-12-19T10:41:58.731Z,101096.84
2022-12-19T10:44:54.082Z,101099.59
2022-12-19T10:48:00.532Z,101097.69
2022-12-19T10:50:30.717Z,101096.00
2022-12-19T11:26:14.601Z,101037.72
2022-12-19T11:29:32.821Z,101025.31
2022-12-19T11:32:42.859Z,101019.09
2022-12-19T11:35:24.270Z,101032.25
2022-12-19T11:38:06.653Z,101026.00
2022-12-19T11:40:48.561Z,101019.69
2022-12-19T11:43:45.420Z,101002.13
2022-12-19T11:46:26.095Z,100996.88
2022-12-19T11:49:10.027Z,101001.28
2022-12-19T11:52:03.188Z,101003.81
2022-12-19T11:54:36.519Z,101007.38
2022-12-19T11:57:03.978Z,100998.56
2022-12-19T11:59:36.355Z,100986.13
2022-12-19T12:02:18.702Z,100984.44
2022-12-19T12:05:26.598Z,100983.59
2022-12-19T12:10:07.729Z,100982.53
2022-12-19T12:18:47.805Z,100987.78
2022-12-19T12:28:51.555Z,100983.25
2022-12-19T12:31:01.887Z,100968.44
2022-12-19T12:31:39.983Z,100961.25
2022-12-19T12:31:43.766Z,100956.94
2022-12-19T12:32:02.998Z,100975.97
2022-12-19T12:32:04.344Z,100969.03
2022-12-19T12:35:42.534Z,100955.88
2022-12-19T12:40:53.570Z,100952.16
2022-12-19T12:43:35.963Z,100935.44
2022-12-19T12:46:12.886Z,100938.78
2022-12-19T12:48:57.181Z,100939.50
2022-12-19T12:51:26.560Z,100937.84
2022-12-19T12:54:07.734Z,100926.47
2022-12-19T12:56:37.166Z,100916.81
2022-12-19T12:59:26.488Z,100921.94
2022-12-19T13:01:59.918Z,100923.72
2022-12-19T13:04:43.408Z,100909.63
2022-12-19T13:07:30.463Z,100916.56
2022-12-19T13:10:13.015Z,100914.66
2022-12-19T13:13:17.374Z,100919.91
2022-12-19T13:15:47.230Z,100925.88
2022-12-19T13:18:37.826Z,100930.44
2022-12-19T13:21:08.896Z,100928.50
2022-12-19T13:23:36.136Z,100918.84
2022-12-19T13:26:04.183Z,100917.03
2022-12-19T13:28:31.423Z,100923.03
2022-12-19T13:31:18.480Z,100915.38
2022-12-19T13:33:51.941Z,100905.56
2022-12-19T13:39:50.089Z,100902.78
2022-12-19T13:40:20.332Z,100896.22
2022-12-19T13:43:25.817Z,100890.13
2022-12-19T13:46:29.213Z,100900.28
2022-12-19T13:49:12.310Z,100885.03
2022-12-19T13:51:48.755Z,100896.72
2022-12-19T13:54:50.453Z,100888.84
2022-12-19T13:57:29.057Z,100873.75
2022-12-19T14:00:08.155Z,100868.50
2022-12-19T14:02:46.327Z,100873.75
2022-12-19T14:05:44.534Z,100861.31
2022-12-19T14:08:25.175Z,100862.25
2022-12-19T14:11:43.068Z,100870.06
2022-12-19T14:14:29.638Z,100864.91
2022-12-19T14:17:13.440Z,100859.06
2022-12-19T14:19:45.958Z,100862.53
2022-12-19T14:22:25.171Z,100871.00
2022-12-19T14:24:54.440Z,100866.56
2022-12-19T14:28:17.072Z,100861.31
2022-12-19T14:30:34.932Z,100852.47
2022-12-19T14:33:43.766Z,100848.03
2022-12-19T14:36:15.204Z,100844.69
2022-12-19T14:39:23.171Z,100848.88
2022-12-19T14:42:04.950Z,100838.97
2022-12-19T14:51:25.113Z,100841.69
2022-12-19T14:54:04.575Z,100852.22
2022-12-19T14:54:28.280Z,100830.34
2022-12-19T14:54:50.653Z,100838.13
2022-12-19T14:59:46.233Z,100822.56
2022-12-19T15:02:32.571Z,100814.31
2022-12-19T15:05:14.062Z,100810.50
2022-12-19T15:07:49.598Z,100798.88
2022-12-19T15:11:00.652Z,100804.84
2022-12-19T15:14:53.595Z,100798.88
2022-12-19T15:16:29.022Z,100799.59
2022-12-19T15:19:04.491Z,100799.13
2022-12-19T15:21:32.183Z,100805.09
2022-12-19T15:23:59.118Z,100800.81
2022-12-19T15:26:34.697Z,100798.88
2022-12-19T15:29:06.787Z,100798.59
2022-12-19T15:31:41.344Z,100797.91
2022-12-19T15:34:41.601Z,100796.34
2022-12-19T15:37:17.007Z,100794.09
2022-12-19T15:39:45.249Z,100800.22
2022-12-19T15:42:27.149Z,100794.09
2022-12-19T15:44:58.112Z,100783.59
2022-12-19T15:47:37.131Z,100786.34
2022-12-19T15:50:28.376Z,100769.72
2022-12-19T15:52:59.483Z,100768.03
2022-12-19T15:55:30.583Z,100761.97
2022-12-19T15:58:06.162Z,100758.59
2022-12-19T16:00:36.528Z,100764.47
2022-12-19T16:05:52.230Z,100762.28
2022-12-19T16:08:25.200Z,100757.28
2022-12-19T16:11:01.884Z,100752.25
2022-12-19T16:13:36.392Z,100746.31
2022-12-19T16:16:09.204Z,100754.91
2022-12-19T16:18:40.601Z,100741.75
2022-12-19T16:21:17.706Z,100740.09
2022-12-19T16:23:44.955Z,100738.16
2022-12-19T16:26:34.389Z,100732.91
2022-12-19T16:29:02.402Z,100729.56
2022-12-19T16:31:29.639Z,100734.84
2022-12-19T16:33:57.287Z,100726.25
2022-12-19T16:36:24.399Z,100724.56
2022-12-19T16:38:51.807Z,100726.47
2022-12-19T16:41:25.131Z,100714.75
2022-12-19T16:43:53.029Z,100722.63
2022-12-19T16:46:23.710Z,100712.34
2022-12-19T16:48:51.132Z,100724.56
2022-12-19T16:51:24.132Z,100717.63
2022-12-19T16:53:54.494Z,100713.19
2022-12-19T16:56:38.538Z,100708.78
2022-12-19T16:59:20.952Z,100708.91
2022-12-19T17:01:49.118Z,100710.69
2022-12-19T17:04:21.573Z,100705.44
2022-12-19T17:06:50.560Z,100702.81
2022-12-19T17:09:23.304Z,100700.19
2022-12-19T17:11:59.782Z,100710.69
2022-12-19T17:14:34.438Z,100706.38
2022-12-19T17:17:01.691Z,100695.16
2022-12-19T17:19:38.573Z,100703.19
2022-12-19T17:22:18.676Z,100699.47
2022-12-19T17:24:48.337Z,100695.03
2022-12-19T17:27:17.342Z,100709.88
2022-12-19T17:29:45.547Z,100700.44
2022-12-19T17:32:23.280Z,100697.81
2022-12-19T17:34:52.665Z,100698.03
2022-12-19T17:37:19.812Z,100699.72
2022-12-19T17:39:48.393Z,100697.94
2022-12-19T17:42:24.643Z,100697.09
2022-12-19T17:44:52.245Z,100687.53
2022-12-19T17:47:20.943Z,100688.50
2022-12-19T17:49:49.515Z,100688.50
2022-12-19T17:52:19.844Z,100678.00
2022-12-19T17:54:47.302Z,100678.00
2022-12-19T17:57:16.528Z,100688.22
2022-12-19T17:59:46.512Z,100688.38
2022-12-19T18:02:25.121Z,100683.09
2022-12-19T18:04:53.949Z,100691.25
2022-12-19T18:07:21.253Z,100679.91
2022-12-19T18:09:48.953Z,100677.28
2022-12-19T18:12:16.165Z,100677.28
2022-12-19T18:14:43.526Z,100670.34
2022-12-19T18:17:23.841Z,100661.50
2022-12-19T18:19:51.783Z,100664.38
2022-12-19T18:22:18.679Z,100673.22
2022-12-19T18:24:46.099Z,100662.69
2022-12-19T18:27:14.130Z,100662.13
2022-12-19T18:29:41.449Z,100654.13
2022-12-19T18:32:19.298Z,100646.09
2022-12-19T18:34:46.757Z,100657.44
2022-12-19T18:37:15.897Z,100648.00
2022-12-19T18:39:43.211Z,100656.88
2022-12-19T18:42:20.615Z,100655.06
2022-12-19T18:44:48.044Z,100650.78
2022-12-19T18:47:23.474Z,100636.66
2022-12-19T18:49:52.244Z,100631.41
2022-12-19T18:52:19.212Z,100632.38
2022-12-19T18:54:46.451Z,100625.19
2022-12-19T18:57:14.528Z,100624.25
2022-12-19T18:59:41.806Z,100622.56
2022-12-19T19:02:41.828Z,100613.97
2022-12-19T19:05:16.989Z,100607.03
2022-12-19T19:07:44.896Z,100608.00
2022-12-19T19:10:41.790Z,100605.38
2022-12-19T19:13:13.012Z,100600.13
2022-12-19T19:15:57.462Z,100598.69
2022-12-19T19:18:29.800Z,100592.59
2022-12-19T19:21:01.273Z,100593.31
2022-12-19T19:23:56.709Z,100588.06
2022-12-19T19:26:24.205Z,100589.63
2022-12-19T19:28:52.685Z,100586.53
2022-12-19T19:31:26.528Z,100591.78
2022-12-19T19:34:02.939Z,100590.09
2022-12-19T19:36:35.858Z,100598.69
2022-12-19T19:39:04.554Z,100590.09
2022-12-19T19:41:34.134Z,100587.34
2022-12-19T19:44:02.327Z,100591.78
2022-12-19T19:46:29.652Z,100581.28
2022-12-19T19:48:57.155Z,100583.91
2022-12-19T19:51:24.840Z,100583.91
2022-12-19T19:53:51.964Z,100581.28
2022-12-19T19:56:19.416Z,100593.44
2022-12-19T19:58:46.534Z,100585.69
2022-12-19T20:01:14.500Z,100589.28
2022-12-19T20:03:42.968Z,100595.22
2022-12-19T20:06:11.057Z,100585.56
2022-12-19T20:08:40.051Z,100588.19
2022-12-19T20:11:10.462Z,100583.75
2022-12-19T20:13:38.487Z,100581.97
2022-12-19T20:16:12.675Z,100573.09
2022-12-19T20:18:45.925Z,100570.47
2022-12-19T20:21:14.025Z,100572.16
2022-12-19T20:23:43.267Z,100573.84
2022-12-19T20:26:16.244Z,100571.91
2022-12-19T20:28:49.148Z,100570.22
2022-12-19T20:31:23.497Z,100575.47
2022-12-19T20:33:53.065Z,100574.66
2022-12-19T20:36:21.608Z,100564.13
2022-12-19T20:38:49.413Z,100563.03
2022-12-19T20:41:17.984Z,100564.03
2022-12-19T20:43:45.440Z,100561.38
2022-12-19T20:46:17.794Z,100573.56
2022-12-19T20:48:46.863Z,100551.72
2022-12-19T20:51:16.175Z,100543.00
2022-12-19T20:53:43.497Z,100546.47
2022-12-19T20:56:18.030Z,100538.56
2022-12-19T20:58:46.387Z,100554.19
2022-12-19T21:01:22.589Z,100549.91
2022-12-19T21:03:50.550Z,100542.84
2022-12-19T21:06:20.567Z,100538.44
2022-12-19T21:08:47.956Z,100534.84
2022-12-19T21:11:15.921Z,100539.13
2022-12-19T21:13:44.561Z,100549.78
2022-12-19T21:16:17.638Z,100538.19
2022-12-19T21:18:47.199Z,100534.56
2022-12-19T21:21:20.124Z,100520.72
2022-12-19T21:23:47.634Z,100529.59
2022-12-19T21:26:15.186Z,100526.69
2022-12-19T21:28:43.008Z,100525.97
2022-12-19T21:31:23.500Z,100515.47
2022-12-19T21:33:54.199Z,100519.78
2022-12-19T21:36:24.085Z,100524.03
2022-12-19T21:38:56.268Z,100518.78
2022-12-19T21:41:24.017Z,100506.38
2022-12-19T21:43:55.438Z,100504.69
2022-12-19T21:46:26.842Z,100492.50
2022-12-19T21:48:56.463Z,100508.28
2022-12-19T21:51:28.658Z,100489.16
2022-12-19T21:54:00.434Z,100486.44
2022-12-19T21:56:32.075Z,100485.59
2022-12-19T21:59:03.287Z,100487.25
2022-12-19T22:01:31.739Z,100482.97
2022-12-19T22:04:02.102Z,100481.97
2022-12-19T22:06:32.408Z,100466.19
2022-12-19T22:09:00.986Z,100464.56
2022-12-19T22:11:30.168Z,100471.59
2022-12-19T22:14:00.667Z,100466.19
2022-12-19T22:16:29.352Z,100468.84
2022-12-19T22:18:56.789Z,100469.81
2022-12-19T22:21:25.541Z,100463.56
2022-12-19T22:23:57.517Z,100462.63
2022-12-19T22:26:27.652Z,100454.75
2022-12-19T22:28:56.861Z,100460.69
2022-12-19T22:31:30.087Z,100446.31
2022-12-19T22:34:01.435Z,100450.88
2022-12-19T22:36:31.902Z,100448.94
2022-12-19T22:39:02.042Z,100446.31
2022-12-19T22:41:30.309Z,100441.03
2022-12-19T22:43:57.360Z,100445.59
2022-12-19T22:46:28.401Z,100437.16
2022-12-19T22:48:58.703Z,100429.41
2022-12-19T22:51:28.416Z,100431.06
2022-12-19T22:53:56.375Z,100438.28
2022-12-19T22:56:28.015Z,100439.91
2022-12-19T22:58:59.937Z,100438.97
2022-12-19T23:01:32.424Z,100429.41
2022-12-19T23:04:02.410Z,100440.75
2022-12-19T23:06:33.485Z,100445.16
2022-12-19T23:09:01.566Z,100428.31
2022-12-19T23:11:34.082Z,100429.13
2022-12-19T23:14:03.633Z,100420.28
2022-12-19T23:16:30.893Z,100411.44
2022-12-19T23:18:58.331Z,100420.00
2022-12-19T23:21:26.530Z,100415.59
2022-12-19T23:23:55.700Z,100420.00
2022-12-19T23:26:26.455Z,100418.22
2022-12-19T23:29:05.394Z,100408.69
2022-12-19T23:39:18.564Z,100398.97
2022-12-19T23:41:45.661Z,100394.69
2022-12-19T23:44:13.301Z,100398.03
2022-12-19T23:46:40.240Z,100397.06
2022-12-19T23:49:07.948Z,100391.81
2022-12-19T23:51:35.151Z,100404.97
2022-12-19T23:54:02.584Z,100393.44
2022-12-19T23:56:32.491Z,100379.34
2022-12-19T23:59:00.297Z,100387.34
